sensor_id;sensor_type;location;lat;lon;timestamp;pressure;altitude;pressure_sealevel;temperature;humidity
6851;BME280;3464;42.728;23.296;2023-07-29T00:02:24;95112.84;;;28.42;38.20
6851;BME280;3464;42.728;23.296;2023-07-29T00:04:51;95112.79;;;28.70;37.77
6851;BME280;3464;42.728;23.296;2023-07-29T00:07:18;95120.41;;;28.32;38.57
6851;BME280;3464;42.728;23.296;2023-07-29T00:09:44;95121.45;;;27.88;39.37
6851;BME280;3464;42.728;23.296;2023-07-29T00:12:11;95120.05;;;28.31;38.94
6851;BME280;3464;42.728;23.296;2023-07-29T00:14:37;95116.99;;;28.45;38.51
6851;BME280;3464;42.728;23.296;2023-07-29T00:17:04;95118.72;;;28.59;38.26
6851;BME280;3464;42.728;23.296;2023-07-29T00:19:31;95115.97;;;28.68;37.96
6851;BME280;3464;42.728;23.296;2023-07-29T00:21:57;95107.91;;;27.41;39.80
6851;BME280;3464;42.728;23.296;2023-07-29T00:24:24;95110.34;;;27.51;39.69
6851;BME280;3464;42.728;23.296;2023-07-29T00:26:51;95104.42;;;27.63;39.51
6851;BME280;3464;42.728;23.296;2023-07-29T00:29:18;95102.89;;;27.39;39.76
6851;BME280;3464;42.728;23.296;2023-07-29T00:31:45;95108.86;;;27.68;39.20
6851;BME280;3464;42.728;23.296;2023-07-29T00:34:11;95102.29;;;27.48;39.78
6851;BME280;3464;42.728;23.296;2023-07-29T00:36:38;95107.84;;;27.28;39.97
6851;BME280;3464;42.728;23.296;2023-07-29T00:39:04;95111.88;;;27.32;40.05
6851;BME280;3464;42.728;23.296;2023-07-29T00:41:31;95106.08;;;27.50;39.81
6851;BME280;3464;42.728;23.296;2023-07-29T00:43:57;95107.98;;;26.81;41.23
6851;BME280;3464;42.728;23.296;2023-07-29T00:46:24;95104.60;;;27.46;40.30
6851;BME280;3464;42.728;23.296;2023-07-29T00:48:50;95096.18;;;27.99;39.38
6851;BME280;3464;42.728;23.296;2023-07-29T00:51:17;95104.66;;;27.59;40.05
6851;BME280;3464;42.728;23.296;2023-07-29T00:53:43;95109.09;;;27.21;40.65
6851;BME280;3464;42.728;23.296;2023-07-29T00:56:10;95111.53;;;27.16;40.78
6851;BME280;3464;42.728;23.296;2023-07-29T00:58:36;95106.42;;;27.00;41.27
6851;BME280;3464;42.728;23.296;2023-07-29T01:01:03;95108.67;;;27.20;40.88
6851;BME280;3464;42.728;23.296;2023-07-29T01:03:31;95103.59;;;26.82;41.51
6851;BME280;3464;42.728;23.296;2023-07-29T01:06:12;95097.21;;;26.88;41.38
6851;BME280;3464;42.728;23.296;2023-07-29T01:08:41;95096.27;;;26.82;41.57
6851;BME280;3464;42.728;23.296;2023-07-29T01:11:18;95101.27;;;27.07;41.31
6851;BME280;3464;42.728;23.296;2023-07-29T01:13:47;95103.88;;;26.54;42.06
6851;BME280;3464;42.728;23.296;2023-07-29T01:16:17;95106.09;;;27.13;41.34
6851;BME280;3464;42.728;23.296;2023-07-29T01:18:44;95100.64;;;27.04;41.49
6851;BME280;3464;42.728;23.296;2023-07-29T01:21:10;95106.59;;;27.12;41.43
6851;BME280;3464;42.728;23.296;2023-07-29T01:23:37;95106.48;;;27.21;41.31
6851;BME280;3464;42.728;23.296;2023-07-29T01:26:03;95097.02;;;27.21;41.48
6851;BME280;3464;42.728;23.296;2023-07-29T01:28:30;95101.83;;;26.83;41.78
6851;BME280;3464;42.728;23.296;2023-07-29T01:31:01;95102.13;;;26.70;42.36
6851;BME280;3464;42.728;23.296;2023-07-29T01:33:26;95098.69;;;26.93;41.93
6851;BME280;3464;42.728;23.296;2023-07-29T01:36:07;95094.22;;;26.95;42.11
6851;BME280;3464;42.728;23.296;2023-07-29T01:38:35;95092.87;;;27.33;41.53
6851;BME280;3464;42.728;23.296;2023-07-29T01:41:02;95094.03;;;27.13;41.72
6851;BME280;3464;42.728;23.296;2023-07-29T01:43:29;95100.30;;;26.87;42.24
6851;BME280;3464;42.728;23.296;2023-07-29T01:45:56;95092.05;;;26.81;42.35
6851;BME280;3464;42.728;23.296;2023-07-29T01:48:22;95094.56;;;27.27;41.59
6851;BME280;3464;42.728;23.296;2023-07-29T01:50:49;95097.72;;;27.02;41.79
6851;BME280;3464;42.728;23.296;2023-07-29T01:53:16;95096.77;;;26.89;42.11
6851;BME280;3464;42.728;23.296;2023-07-29T01:55:43;95099.70;;;26.75;42.47
6851;BME280;3464;42.728;23.296;2023-07-29T01:58:09;95100.22;;;26.66;42.25
6851;BME280;3464;42.728;23.296;2023-07-29T02:00:36;95103.68;;;26.81;42.26
6851;BME280;3464;42.728;23.296;2023-07-29T02:03:03;95110.86;;;23.82;47.17
6851;BME280;3464;42.728;23.296;2023-07-29T02:05:31;95112.12;;;23.83;48.41
6851;BME280;3464;42.728;23.296;2023-07-29T02:07:57;95104.65;;;24.06;47.74
6851;BME280;3464;42.728;23.296;2023-07-29T02:10:24;95105.06;;;23.78;48.17
6851;BME280;3464;42.728;23.296;2023-07-29T02:12:50;95113.80;;;24.75;45.97
6851;BME280;3464;42.728;23.296;2023-07-29T02:15:17;95115.22;;;23.61;48.20
6851;BME280;3464;42.728;23.296;2023-07-29T02:17:44;95113.93;;;24.00;47.56
6851;BME280;3464;42.728;23.296;2023-07-29T02:20:11;95109.34;;;24.60;46.28
6851;BME280;3464;42.728;23.296;2023-07-29T02:22:37;95114.70;;;24.56;46.16
6851;BME280;3464;42.728;23.296;2023-07-29T02:25:05;95113.70;;;24.50;45.95
6851;BME280;3464;42.728;23.296;2023-07-29T02:27:31;95110.70;;;24.58;45.88
6851;BME280;3464;42.728;23.296;2023-07-29T02:29:58;95106.39;;;24.68;45.55
6851;BME280;3464;42.728;23.296;2023-07-29T02:32:25;95098.35;;;24.75;45.73
6851;BME280;3464;42.728;23.296;2023-07-29T02:34:52;95113.11;;;25.14;44.83
6851;BME280;3464;42.728;23.296;2023-07-29T02:37:19;95105.03;;;25.12;44.56
6851;BME280;3464;42.728;23.296;2023-07-29T02:39:46;95114.51;;;24.95;45.02
6851;BME280;3464;42.728;23.296;2023-07-29T02:42:12;95115.65;;;25.23;44.95
6851;BME280;3464;42.728;23.296;2023-07-29T02:44:39;95113.16;;;25.71;43.59
6851;BME280;3464;42.728;23.296;2023-07-29T02:47:05;95114.74;;;25.33;43.93
6851;BME280;3464;42.728;23.296;2023-07-29T02:49:32;95112.12;;;25.08;44.74
6851;BME280;3464;42.728;23.296;2023-07-29T02:51:58;95117.22;;;24.93;45.29
6851;BME280;3464;42.728;23.296;2023-07-29T02:54:25;95119.99;;;25.14;44.85
6851;BME280;3464;42.728;23.296;2023-07-29T02:56:52;95120.47;;;25.13;44.73
6851;BME280;3464;42.728;23.296;2023-07-29T02:59:18;95119.11;;;25.06;44.76
6851;BME280;3464;42.728;23.296;2023-07-29T03:01:44;95123.81;;;24.97;44.95
6851;BME280;3464;42.728;23.296;2023-07-29T03:04:11;95124.23;;;24.45;45.28
6851;BME280;3464;42.728;23.296;2023-07-29T03:06:40;95130.78;;;24.78;45.19
6851;BME280;3464;42.728;23.296;2023-07-29T03:09:09;95131.22;;;24.51;45.87
6851;BME280;3464;42.728;23.296;2023-07-29T03:11:35;95134.70;;;24.68;45.48
6851;BME280;3464;42.728;23.296;2023-07-29T03:14:02;95133.05;;;24.76;45.34
6851;BME280;3464;42.728;23.296;2023-07-29T03:16:28;95134.61;;;24.79;45.40
6851;BME280;3464;42.728;23.296;2023-07-29T03:18:55;95138.20;;;24.67;45.33
6851;BME280;3464;42.728;23.296;2023-07-29T03:21:21;95134.19;;;23.19;48.03
6851;BME280;3464;42.728;23.296;2023-07-29T03:23:48;95140.39;;;23.73;47.48
6851;BME280;3464;42.728;23.296;2023-07-29T03:26:14;95129.59;;;24.04;47.08
6851;BME280;3464;42.728;23.296;2023-07-29T03:28:41;95135.96;;;24.50;45.95
6851;BME280;3464;42.728;23.296;2023-07-29T03:31:08;95140.47;;;24.65;45.65
6851;BME280;3464;42.728;23.296;2023-07-29T03:33:34;95138.52;;;25.21;44.57
6851;BME280;3464;42.728;23.296;2023-07-29T03:36:01;95138.94;;;25.55;43.97
6851;BME280;3464;42.728;23.296;2023-07-29T03:38:27;95135.45;;;25.48;43.72
6851;BME280;3464;42.728;23.296;2023-07-29T03:40:54;95129.23;;;25.68;43.58
6851;BME280;3464;42.728;23.296;2023-07-29T03:43:20;95130.56;;;26.63;42.45
6851;BME280;3464;42.728;23.296;2023-07-29T03:45:47;95130.00;;;27.10;41.04
6851;BME280;3464;42.728;23.296;2023-07-29T03:48:14;95141.78;;;26.62;41.71
6851;BME280;3464;42.728;23.296;2023-07-29T03:50:40;95135.81;;;27.20;40.79
6851;BME280;3464;42.728;23.296;2023-07-29T03:53:07;95121.36;;;28.04;39.48
6851;BME280;3464;42.728;23.296;2023-07-29T03:55:33;95126.06;;;29.24;38.06
6851;BME280;3464;42.728;23.296;2023-07-29T03:58:00;95122.10;;;30.20;36.68
6851;BME280;3464;42.728;23.296;2023-07-29T04:00:27;95118.93;;;31.34;34.32
6851;BME280;3464;42.728;23.296;2023-07-29T04:02:53;95121.25;;;32.11;33.26
6851;BME280;3464;42.728;23.296;2023-07-29T04:05:20;95123.16;;;32.90;33.08
6851;BME280;3464;42.728;23.296;2023-07-29T04:07:48;95126.93;;;34.40;30.77
6851;BME280;3464;42.728;23.296;2023-07-29T04:10:15;95137.30;;;35.90;29.47
6851;BME280;3464;42.728;23.296;2023-07-29T04:12:42;95129.16;;;36.25;28.75
6851;BME280;3464;42.728;23.296;2023-07-29T04:15:08;95130.30;;;37.61;27.54
6851;BME280;3464;42.728;23.296;2023-07-29T04:17:35;95129.91;;;37.43;26.96
6851;BME280;3464;42.728;23.296;2023-07-29T04:20:01;95130.13;;;36.70;27.18
6851;BME280;3464;42.728;23.296;2023-07-29T04:22:28;95126.22;;;38.39;26.29
6851;BME280;3464;42.728;23.296;2023-07-29T04:24:55;95136.77;;;37.49;26.66
6851;BME280;3464;42.728;23.296;2023-07-29T04:27:22;95129.88;;;38.63;25.63
6851;BME280;3464;42.728;23.296;2023-07-29T04:29:48;95135.44;;;38.47;25.88
6851;BME280;3464;42.728;23.296;2023-07-29T04:32:15;95129.78;;;40.01;24.57
6851;BME280;3464;42.728;23.296;2023-07-29T04:34:43;95102.42;;;41.59;23.27
6851;BME280;3464;42.728;23.296;2023-07-29T04:37:10;95136.32;;;40.76;23.49
6851;BME280;3464;42.728;23.296;2023-07-29T04:39:37;95133.27;;;41.48;23.09
6851;BME280;3464;42.728;23.296;2023-07-29T04:42:05;95128.89;;;41.85;22.56
6851;BME280;3464;42.728;23.296;2023-07-29T04:44:32;95136.75;;;43.02;21.90
6851;BME280;3464;42.728;23.296;2023-07-29T04:46:59;95139.50;;;42.84;21.81
6851;BME280;3464;42.728;23.296;2023-07-29T04:49:25;95140.61;;;44.63;20.45
6851;BME280;3464;42.728;23.296;2023-07-29T04:51:52;95146.63;;;44.27;20.74
6851;BME280;3464;42.728;23.296;2023-07-29T04:54:18;95147.30;;;46.22;19.33
6851;BME280;3464;42.728;23.296;2023-07-29T04:56:45;95144.55;;;46.06;19.15
6851;BME280;3464;42.728;23.296;2023-07-29T04:59:12;95149.67;;;45.92;19.34
6851;BME280;3464;42.728;23.296;2023-07-29T05:01:38;95151.27;;;42.59;21.66
6851;BME280;3464;42.728;23.296;2023-07-29T05:04:05;95151.11;;;45.01;20.33
6851;BME280;3464;42.728;23.296;2023-07-29T05:06:31;95153.39;;;45.14;20.13
6851;BME280;3464;42.728;23.296;2023-07-29T05:09:12;95156.62;;;45.96;19.27
6851;BME280;3464;42.728;23.296;2023-07-29T05:11:27;95151.69;;;45.99;19.23
6851;BME280;3464;42.728;23.296;2023-07-29T05:13:53;95153.29;;;45.48;19.30
6851;BME280;3464;42.728;23.296;2023-07-29T05:16:20;95159.44;;;47.20;18.43
6851;BME280;3464;42.728;23.296;2023-07-29T05:18:46;95159.72;;;45.10;19.89
6851;BME280;3464;42.728;23.296;2023-07-29T05:21:13;95153.52;;;45.57;19.66
6851;BME280;3464;42.728;23.296;2023-07-29T05:23:39;95158.66;;;45.78;19.37
6851;BME280;3464;42.728;23.296;2023-07-29T05:26:06;95154.97;;;46.85;18.75
6851;BME280;3464;42.728;23.296;2023-07-29T05:28:32;95157.25;;;48.04;17.85
6851;BME280;3464;42.728;23.296;2023-07-29T05:31:00;95158.19;;;46.11;19.13
6851;BME280;3464;42.728;23.296;2023-07-29T05:33:26;95163.08;;;46.72;18.94
6851;BME280;3464;42.728;23.296;2023-07-29T05:35:54;95168.91;;;45.01;20.02
6851;BME280;3464;42.728;23.296;2023-07-29T05:38:21;95163.69;;;46.12;19.25
6851;BME280;3464;42.728;23.296;2023-07-29T05:40:49;95166.91;;;47.39;18.58
6851;BME280;3464;42.728;23.296;2023-07-29T05:43:15;95171.94;;;48.16;18.07
6851;BME280;3464;42.728;23.296;2023-07-29T05:45:42;95166.02;;;48.44;17.77
6851;BME280;3464;42.728;23.296;2023-07-29T05:48:08;95163.58;;;49.89;17.01
6851;BME280;3464;42.728;23.296;2023-07-29T05:50:35;95167.46;;;48.35;17.55
6851;BME280;3464;42.728;23.296;2023-07-29T05:53:01;95174.52;;;47.73;18.20
6851;BME280;3464;42.728;23.296;2023-07-29T05:55:28;95163.70;;;49.23;17.33
6851;BME280;3464;42.728;23.296;2023-07-29T05:57:54;95167.88;;;48.74;17.40
6851;BME280;3464;42.728;23.296;2023-07-29T06:00:21;95164.91;;;50.15;16.74
6851;BME280;3464;42.728;23.296;2023-07-29T06:02:47;95160.11;;;51.46;15.95
6851;BME280;3464;42.728;23.296;2023-07-29T06:05:14;95168.69;;;51.59;15.84
6851;BME280;3464;42.728;23.296;2023-07-29T06:07:40;95163.21;;;50.95;16.33
6851;BME280;3464;42.728;23.296;2023-07-29T06:10:07;95157.95;;;52.07;15.65
6851;BME280;3464;42.728;23.296;2023-07-29T06:12:34;95162.44;;;53.00;15.10
6851;BME280;3464;42.728;23.296;2023-07-29T06:15:00;95161.86;;;53.19;14.89
6851;BME280;3464;42.728;23.296;2023-07-29T06:17:27;95155.38;;;52.85;15.11
6851;BME280;3464;42.728;23.296;2023-07-29T06:19:54;95159.46;;;51.55;15.71
6851;BME280;3464;42.728;23.296;2023-07-29T06:22:20;95160.11;;;51.54;15.77
6851;BME280;3464;42.728;23.296;2023-07-29T06:24:47;95152.20;;;51.53;15.63
6851;BME280;3464;42.728;23.296;2023-07-29T06:27:13;95152.25;;;50.83;15.98
6851;BME280;3464;42.728;23.296;2023-07-29T06:29:40;95145.17;;;52.49;15.06
6851;BME280;3464;42.728;23.296;2023-07-29T06:32:06;95150.82;;;51.59;15.59
6851;BME280;3464;42.728;23.296;2023-07-29T06:34:33;95148.97;;;53.45;14.81
6851;BME280;3464;42.728;23.296;2023-07-29T06:37:00;95138.96;;;53.83;14.46
6851;BME280;3464;42.728;23.296;2023-07-29T06:39:27;95137.77;;;52.94;14.69
6851;BME280;3464;42.728;23.296;2023-07-29T06:41:53;95137.94;;;52.22;15.15
6851;BME280;3464;42.728;23.296;2023-07-29T06:44:20;95135.11;;;52.89;14.93
6851;BME280;3464;42.728;23.296;2023-07-29T06:46:46;95134.41;;;51.50;15.60
6851;BME280;3464;42.728;23.296;2023-07-29T06:49:13;95128.89;;;50.95;15.94
6851;BME280;3464;42.728;23.296;2023-07-29T06:51:39;95131.08;;;53.58;14.78
6851;BME280;3464;42.728;23.296;2023-07-29T06:54:06;95137.77;;;55.41;13.75
6851;BME280;3464;42.728;23.296;2023-07-29T06:56:33;95130.52;;;54.84;13.96
6851;BME280;3464;42.728;23.296;2023-07-29T06:59:00;95135.81;;;55.31;13.60
6851;BME280;3464;42.728;23.296;2023-07-29T07:01:26;95131.81;;;54.30;14.18
6851;BME280;3464;42.728;23.296;2023-07-29T07:03:53;95141.59;;;56.30;13.46
6851;BME280;3464;42.728;23.296;2023-07-29T07:06:21;95138.77;;;57.24;12.73
6851;BME280;3464;42.728;23.296;2023-07-29T07:08:46;95142.61;;;58.43;12.43
6851;BME280;3464;42.728;23.296;2023-07-29T07:11:13;95139.30;;;56.35;13.18
6851;BME280;3464;42.728;23.296;2023-07-29T07:13:40;95131.52;;;56.60;13.04
6851;BME280;3464;42.728;23.296;2023-07-29T07:16:06;95139.48;;;56.79;13.04
6851;BME280;3464;42.728;23.296;2023-07-29T07:18:33;95126.52;;;57.34;12.75
6851;BME280;3464;42.728;23.296;2023-07-29T07:20:59;95125.09;;;58.19;12.46
6851;BME280;3464;42.728;23.296;2023-07-29T07:23:26;95130.91;;;55.63;13.45
6851;BME280;3464;42.728;23.296;2023-07-29T07:25:52;95128.06;;;56.25;13.31
6851;BME280;3464;42.728;23.296;2023-07-29T07:28:19;95128.41;;;57.80;12.81
6851;BME280;3464;42.728;23.296;2023-07-29T07:30:45;95126.16;;;58.21;12.64
6851;BME280;3464;42.728;23.296;2023-07-29T07:33:12;95122.84;;;58.40;12.34
6851;BME280;3464;42.728;23.296;2023-07-29T07:35:39;95121.63;;;57.07;12.80
6851;BME280;3464;42.728;23.296;2023-07-29T07:38:06;95116.12;;;51.69;15.52
6851;BME280;3464;42.728;23.296;2023-07-29T07:40:33;95123.95;;;52.39;15.21
6851;BME280;3464;42.728;23.296;2023-07-29T07:43:00;95113.67;;;55.24;13.89
6851;BME280;3464;42.728;23.296;2023-07-29T07:45:27;95111.31;;;54.78;13.98
6851;BME280;3464;42.728;23.296;2023-07-29T07:47:54;95113.16;;;55.32;13.50
6851;BME280;3464;42.728;23.296;2023-07-29T07:50:21;95106.56;;;54.20;14.29
6851;BME280;3464;42.728;23.296;2023-07-29T07:52:47;95116.52;;;55.26;13.52
6851;BME280;3464;42.728;23.296;2023-07-29T07:55:14;95112.77;;;55.06;13.79
6851;BME280;3464;42.728;23.296;2023-07-29T07:57:40;95120.31;;;56.65;13.10
6851;BME280;3464;42.728;23.296;2023-07-29T08:00:07;95118.86;;;54.09;14.12
6851;BME280;3464;42.728;23.296;2023-07-29T08:02:34;95110.61;;;54.23;14.08
6851;BME280;3464;42.728;23.296;2023-07-29T08:05:00;95115.58;;;54.18;13.96
6851;BME280;3464;42.728;23.296;2023-07-29T08:07:27;95111.03;;;53.58;14.23
6851;BME280;3464;42.728;23.296;2023-07-29T08:09:53;95110.11;;;54.31;13.71
6851;BME280;3464;42.728;23.296;2023-07-29T08:12:22;95114.18;;;51.37;15.39
6851;BME280;3464;42.728;23.296;2023-07-29T08:14:49;95109.48;;;48.74;16.58
6851;BME280;3464;42.728;23.296;2023-07-29T08:17:15;95116.58;;;43.96;20.09
6851;BME280;3464;42.728;23.296;2023-07-29T08:19:42;95121.89;;;42.61;21.20
6851;BME280;3464;42.728;23.296;2023-07-29T08:22:08;95116.44;;;42.88;21.45
6851;BME280;3464;42.728;23.296;2023-07-29T08:24:35;95115.37;;;41.39;22.91
6851;BME280;3464;42.728;23.296;2023-07-29T08:27:01;95111.94;;;40.70;23.37
6851;BME280;3464;42.728;23.296;2023-07-29T08:29:28;95106.41;;;41.37;22.93
6851;BME280;3464;42.728;23.296;2023-07-29T08:31:54;95107.09;;;40.43;23.19
6851;BME280;3464;42.728;23.296;2023-07-29T08:34:21;95115.36;;;39.96;23.83
6851;BME280;3464;42.728;23.296;2023-07-29T08:36:48;95109.29;;;39.96;23.77
6851;BME280;3464;42.728;23.296;2023-07-29T08:39:15;95105.93;;;40.18;23.18
6851;BME280;3464;42.728;23.296;2023-07-29T08:41:47;95100.52;;;40.35;23.49
6851;BME280;3464;42.728;23.296;2023-07-29T08:44:16;95096.81;;;40.01;23.82
6851;BME280;3464;42.728;23.296;2023-07-29T08:46:39;95093.88;;;39.20;23.66
6851;BME280;3464;42.728;23.296;2023-07-29T08:49:05;95086.25;;;39.50;23.70
6851;BME280;3464;42.728;23.296;2023-07-29T08:51:32;95095.86;;;39.70;24.11
6851;BME280;3464;42.728;23.296;2023-07-29T08:53:58;95087.56;;;39.30;23.65
6851;BME280;3464;42.728;23.296;2023-07-29T08:56:25;95086.38;;;39.68;24.66
6851;BME280;3464;42.728;23.296;2023-07-29T08:58:52;95080.58;;;39.58;24.01
6851;BME280;3464;42.728;23.296;2023-07-29T09:01:18;95085.94;;;39.49;24.09
6851;BME280;3464;42.728;23.296;2023-07-29T09:03:45;95078.77;;;39.14;24.48
6851;BME280;3464;42.728;23.296;2023-07-29T09:06:11;95080.81;;;37.99;25.52
6851;BME280;3464;42.728;23.296;2023-07-29T09:08:38;95076.41;;;38.37;24.65
6851;BME280;3464;42.728;23.296;2023-07-29T09:11:05;95077.41;;;38.44;24.85
6851;BME280;3464;42.728;23.296;2023-07-29T09:13:32;95065.14;;;37.90;24.71
6851;BME280;3464;42.728;23.296;2023-07-29T09:15:59;95069.59;;;38.52;24.80
6851;BME280;3464;42.728;23.296;2023-07-29T09:18:26;95068.11;;;38.58;24.84
6851;BME280;3464;42.728;23.296;2023-07-29T09:20:52;95071.17;;;35.65;26.60
6851;BME280;3464;42.728;23.296;2023-07-29T09:23:19;95063.86;;;36.99;25.27
6851;BME280;3464;42.728;23.296;2023-07-29T09:25:46;95058.83;;;36.70;25.43
6851;BME280;3464;42.728;23.296;2023-07-29T09:28:14;95059.11;;;35.21;26.57
6851;BME280;3464;42.728;23.296;2023-07-29T09:30:40;95067.43;;;35.95;26.24
6851;BME280;3464;42.728;23.296;2023-07-29T09:33:06;95057.42;;;37.41;25.08
6851;BME280;3464;42.728;23.296;2023-07-29T09:35:33;95057.28;;;37.21;24.72
6851;BME280;3464;42.728;23.296;2023-07-29T09:38:00;95056.20;;;37.19;24.86
6851;BME280;3464;42.728;23.296;2023-07-29T09:40:27;95050.12;;;37.74;24.62
6851;BME280;3464;42.728;23.296;2023-07-29T09:42:54;95047.04;;;37.83;24.67
6851;BME280;3464;42.728;23.296;2023-07-29T09:45:22;95044.95;;;38.07;24.32
6851;BME280;3464;42.728;23.296;2023-07-29T09:47:49;95046.36;;;38.23;24.30
6851;BME280;3464;42.728;23.296;2023-07-29T09:50:16;95048.02;;;37.98;24.00
6851;BME280;3464;42.728;23.296;2023-07-29T09:52:43;95050.16;;;37.65;23.47
6851;BME280;3464;42.728;23.296;2023-07-29T09:55:13;95044.89;;;37.05;24.05
6851;BME280;3464;42.728;23.296;2023-07-29T09:57:41;95041.13;;;37.97;23.31
6851;BME280;3464;42.728;23.296;2023-07-29T10:00:10;95041.44;;;37.65;23.18
6851;BME280;3464;42.728;23.296;2023-07-29T10:02:35;95037.95;;;38.15;23.23
6851;BME280;3464;42.728;23.296;2023-07-29T10:05:02;95036.59;;;37.95;23.51
6851;BME280;3464;42.728;23.296;2023-07-29T10:07:28;95039.84;;;38.64;24.03
6851;BME280;3464;42.728;23.296;2023-07-29T10:09:55;95029.66;;;38.81;23.38
6851;BME280;3464;42.728;23.296;2023-07-29T10:12:21;95023.22;;;38.63;24.35
6851;BME280;3464;42.728;23.296;2023-07-29T10:14:50;95029.54;;;38.37;23.31
6851;BME280;3464;42.728;23.296;2023-07-29T10:17:17;95021.23;;;38.12;23.68
6851;BME280;3464;42.728;23.296;2023-07-29T10:19:43;95021.19;;;38.01;23.37
6851;BME280;3464;42.728;23.296;2023-07-29T10:22:10;95020.95;;;38.88;22.62
6851;BME280;3464;42.728;23.296;2023-07-29T10:24:36;95006.25;;;37.45;23.43
6851;BME280;3464;42.728;23.296;2023-07-29T10:27:03;95009.70;;;38.22;22.85
6851;BME280;3464;42.728;23.296;2023-07-29T10:29:32;94997.09;;;36.45;23.63
6851;BME280;3464;42.728;23.296;2023-07-29T10:32:01;94998.22;;;37.25;23.46
6851;BME280;3464;42.728;23.296;2023-07-29T10:34:25;94990.12;;;38.03;24.48
6851;BME280;3464;42.728;23.296;2023-07-29T10:36:52;94995.56;;;38.18;23.46
6851;BME280;3464;42.728;23.296;2023-07-29T10:39:18;94982.45;;;37.63;23.39
6851;BME280;3464;42.728;23.296;2023-07-29T10:41:57;94986.91;;;36.85;23.75
6851;BME280;3464;42.728;23.296;2023-07-29T10:44:46;94983.57;;;37.27;23.07
6851;BME280;3464;42.728;23.296;2023-07-29T10:47:15;94986.20;;;37.66;23.17
6851;BME280;3464;42.728;23.296;2023-07-29T10:49:42;94984.70;;;37.54;24.07
6851;BME280;3464;42.728;23.296;2023-07-29T10:52:12;94978.67;;;38.41;22.85
6851;BME280;3464;42.728;23.296;2023-07-29T10:54:43;94979.13;;;38.00;23.37
6851;BME280;3464;42.728;23.296;2023-07-29T10:57:14;94968.05;;;38.67;24.18
6851;BME280;3464;42.728;23.296;2023-07-29T10:59:40;94967.14;;;38.91;22.85
6851;BME280;3464;42.728;23.296;2023-07-29T11:02:28;94957.72;;;38.97;23.00
6851;BME280;3464;42.728;23.296;2023-07-29T11:04:50;94952.64;;;39.31;23.85
6851;BME280;3464;42.728;23.296;2023-07-29T11:07:20;94955.09;;;38.36;23.04
6851;BME280;3464;42.728;23.296;2023-07-29T11:09:53;94954.38;;;39.23;22.43
6851;BME280;3464;42.728;23.296;2023-07-29T11:15:00;94954.80;;;39.32;22.14
6851;BME280;3464;42.728;23.296;2023-07-29T11:17:25;94958.77;;;37.64;23.24
6851;BME280;3464;42.728;23.296;2023-07-29T11:19:52;94955.09;;;37.44;23.44
6851;BME280;3464;42.728;23.296;2023-07-29T11:22:19;94956.11;;;37.94;22.96
6851;BME280;3464;42.728;23.296;2023-07-29T11:24:45;94955.92;;;38.49;22.76
6851;BME280;3464;42.728;23.296;2023-07-29T11:27:12;94956.43;;;37.99;22.55
6851;BME280;3464;42.728;23.296;2023-07-29T11:29:38;94955.41;;;38.33;21.92
6851;BME280;3464;42.728;23.296;2023-07-29T11:32:05;94955.14;;;37.14;22.73
6851;BME280;3464;42.728;23.296;2023-07-29T11:34:32;94952.12;;;36.79;22.37
6851;BME280;3464;42.728;23.296;2023-07-29T11:36:58;94947.70;;;37.69;21.87
6851;BME280;3464;42.728;23.296;2023-07-29T11:39:25;94947.23;;;38.15;21.79
6851;BME280;3464;42.728;23.296;2023-07-29T11:41:51;94942.65;;;38.62;21.56
6851;BME280;3464;42.728;23.296;2023-07-29T11:44:18;94943.80;;;38.27;21.80
6851;BME280;3464;42.728;23.296;2023-07-29T11:46:45;94937.37;;;38.94;20.97
6851;BME280;3464;42.728;23.296;2023-07-29T11:49:11;94934.58;;;38.68;21.37
6851;BME280;3464;42.728;23.296;2023-07-29T11:51:37;94928.27;;;38.66;21.57
6851;BME280;3464;42.728;23.296;2023-07-29T11:54:04;94935.47;;;38.84;21.32
6851;BME280;3464;42.728;23.296;2023-07-29T11:56:31;94928.73;;;39.53;21.34
6851;BME280;3464;42.728;23.296;2023-07-29T11:58:57;94921.45;;;39.43;21.41
6851;BME280;3464;42.728;23.296;2023-07-29T12:01:24;94915.83;;;39.50;21.31
6851;BME280;3464;42.728;23.296;2023-07-29T12:03:51;94918.66;;;38.37;22.19
6851;BME280;3464;42.728;23.296;2023-07-29T12:06:17;94916.52;;;39.79;21.71
6851;BME280;3464;42.728;23.296;2023-07-29T12:08:44;94916.80;;;39.53;20.92
6851;BME280;3464;42.728;23.296;2023-07-29T12:11:10;94908.48;;;39.96;22.08
6851;BME280;3464;42.728;23.296;2023-07-29T12:13:37;94905.80;;;39.46;21.44
6851;BME280;3464;42.728;23.296;2023-07-29T12:16:04;94912.34;;;40.00;21.57
6851;BME280;3464;42.728;23.296;2023-07-29T12:18:31;94901.34;;;40.20;19.94
6851;BME280;3464;42.728;23.296;2023-07-29T12:20:57;94900.92;;;40.35;21.38
6851;BME280;3464;42.728;23.296;2023-07-29T12:23:24;94895.81;;;40.55;21.21
6851;BME280;3464;42.728;23.296;2023-07-29T12:25:56;94897.89;;;40.34;20.21
6851;BME280;3464;42.728;23.296;2023-07-29T12:28:18;94896.48;;;39.66;21.39
6851;BME280;3464;42.728;23.296;2023-07-29T12:30:45;94897.16;;;39.05;20.65
6851;BME280;3464;42.728;23.296;2023-07-29T12:33:11;94891.72;;;38.95;21.14
6851;BME280;3464;42.728;23.296;2023-07-29T12:35:39;94895.14;;;39.19;20.65
6851;BME280;3464;42.728;23.296;2023-07-29T12:38:05;94888.45;;;39.28;20.46
6851;BME280;3464;42.728;23.296;2023-07-29T12:40:32;94896.09;;;37.81;21.09
6851;BME280;3464;42.728;23.296;2023-07-29T12:42:58;94899.88;;;38.60;21.16
6851;BME280;3464;42.728;23.296;2023-07-29T12:45:25;94888.55;;;39.27;21.14
6851;BME280;3464;42.728;23.296;2023-07-29T12:47:53;94887.19;;;39.67;21.20
6851;BME280;3464;42.728;23.296;2023-07-29T12:50:20;94887.03;;;39.83;20.60
6851;BME280;3464;42.728;23.296;2023-07-29T12:52:47;94895.69;;;40.11;20.65
6851;BME280;3464;42.728;23.296;2023-07-29T12:55:13;94889.44;;;39.97;20.17
6851;BME280;3464;42.728;23.296;2023-07-29T12:57:41;94888.57;;;40.04;20.99
6851;BME280;3464;42.728;23.296;2023-07-29T13:00:08;94890.66;;;40.02;19.45
6851;BME280;3464;42.728;23.296;2023-07-29T13:02:35;94892.42;;;40.25;19.97
6851;BME280;3464;42.728;23.296;2023-07-29T13:05:03;94890.55;;;39.91;19.15
6851;BME280;3464;42.728;23.296;2023-07-29T13:07:30;94897.62;;;39.67;19.47
6851;BME280;3464;42.728;23.296;2023-07-29T13:09:56;94895.72;;;40.19;21.75
6851;BME280;3464;42.728;23.296;2023-07-29T13:12:23;94888.38;;;39.56;19.51